sensor_id;sensor_type;location;lat;lon;timestamp;P1;durP1;ratioP1;P2;durP2;ratioP2
6864;SDS011;3471;49.678;8.388;2022-12-18T00:00:29;71.03;;;35.33;;
6864;SDS011;3471;49.678;8.388;2022-12-18T00:02:55;56.63;;;32.47;;
6864;SDS011;3471;49.678;8.388;2022-12-18T00:05:21;53.15;;;29.10;;
6864;SDS011;3471;49.678;8.388;2022-12-18T00:07:46;60.25;;;32.72;;
6864;SDS011;3471;49.678;8.388;2022-12-18T00:10:12;69.93;;;36.20;;
6864;SDS011;3471;49.678;8.388;2022-12-18T00:12:37;61.30;;;33.28;;
6864;SDS011;3471;49.678;8.388;2022-12-18T00:15:03;59.67;;;31.43;;
6864;SDS011;3471;49.678;8.388;2022-12-18T00:17:29;52.88;;;35.38;;
6864;SDS011;3471;49.678;8.388;2022-12-18T00:19:55;69.03;;;35.77;;
6864;SDS011;3471;49.678;8.388;2022-12-18T00:22:20;58.27;;;33.77;;
6864;SDS011;3471;49.678;8.388;2022-12-18T00:24:46;74.68;;;39.28;;
6864;SDS011;3471;49.678;8.388;2022-12-18T00:27:11;56.10;;;35.30;;
6864;SDS011;3471;49.678;8.388;2022-12-18T00:29:40;63.20;;;32.03;;
6864;SDS011;3471;49.678;8.388;2022-12-18T00:32:05;49.05;;;30.08;;
6864;SDS011;3471;49.678;8.388;2022-12-18T00:34:31;69.97;;;31.23;;
6864;SDS011;3471;49.678;8.388;2022-12-18T00:36:57;57.47;;;31.63;;
6864;SDS011;3471;49.678;8.388;2022-12-18T00:39:22;53.45;;;31.10;;
6864;SDS011;3471;49.678;8.388;2022-12-18T00:41:48;62.33;;;36.93;;
6864;SDS011;3471;49.678;8.388;2022-12-18T00:44:32;57.83;;;32.75;;
6864;SDS011;3471;49.678;8.388;2022-12-18T00:46:57;61.63;;;33.45;;
6864;SDS011;3471;49.678;8.388;2022-12-18T00:49:23;55.58;;;30.08;;
6864;SDS011;3471;49.678;8.388;2022-12-18T00:51:49;54.50;;;28.55;;
6864;SDS011;3471;49.678;8.388;2022-12-18T00:54:14;52.77;;;32.77;;
6864;SDS011;3471;49.678;8.388;2022-12-18T00:56:41;64.05;;;33.55;;
6864;SDS011;3471;49.678;8.388;2022-12-18T00:59:06;59.22;;;32.38;;
6864;SDS011;3471;49.678;8.388;2022-12-18T01:01:32;52.22;;;31.90;;
6864;SDS011;3471;49.678;8.388;2022-12-18T01:03:59;56.10;;;29.27;;
6864;SDS011;3471;49.678;8.388;2022-12-18T01:06:25;50.00;;;29.37;;
6864;SDS011;3471;49.678;8.388;2022-12-18T01:08:51;50.40;;;30.07;;
6864;SDS011;3471;49.678;8.388;2022-12-18T01:11:18;51.70;;;29.33;;
6864;SDS011;3471;49.678;8.388;2022-12-18T01:13:45;48.17;;;31.63;;
6864;SDS011;3471;49.678;8.388;2022-12-18T01:16:12;66.78;;;35.92;;
6864;SDS011;3471;49.678;8.388;2022-12-18T01:18:38;60.80;;;34.33;;
6864;SDS011;3471;49.678;8.388;2022-12-18T01:21:08;50.00;;;28.95;;
6864;SDS011;3471;49.678;8.388;2022-12-18T01:23:35;60.05;;;33.60;;
6864;SDS011;3471;49.678;8.388;2022-12-18T01:26:11;44.05;;;29.83;;
6864;SDS011;3471;49.678;8.388;2022-12-18T01:28:40;59.83;;;32.67;;
6864;SDS011;3471;49.678;8.388;2022-12-18T01:31:23;51.85;;;33.28;;
6864;SDS011;3471;49.678;8.388;2022-12-18T01:33:51;60.13;;;31.53;;
6864;SDS011;3471;49.678;8.388;2022-12-18T01:36:21;55.63;;;33.17;;
6864;SDS011;3471;49.678;8.388;2022-12-18T01:38:49;62.85;;;32.40;;
6864;SDS011;3471;49.678;8.388;2022-12-18T01:41:17;55.50;;;29.88;;
6864;SDS011;3471;49.678;8.388;2022-12-18T01:43:50;59.72;;;32.70;;
6864;SDS011;3471;49.678;8.388;2022-12-18T01:46:19;64.10;;;35.78;;
6864;SDS011;3471;49.678;8.388;2022-12-18T01:48:50;61.00;;;31.43;;
6864;SDS011;3471;49.678;8.388;2022-12-18T01:51:19;53.92;;;31.23;;
6864;SDS011;3471;49.678;8.388;2022-12-18T01:53:45;49.60;;;31.92;;
6864;SDS011;3471;49.678;8.388;2022-12-18T01:56:13;56.65;;;38.05;;
6864;SDS011;3471;49.678;8.388;2022-12-18T01:58:55;61.63;;;35.13;;
6864;SDS011;3471;49.678;8.388;2022-12-18T02:01:27;56.47;;;28.17;;
6864;SDS011;3471;49.678;8.388;2022-12-18T02:03:55;54.03;;;32.63;;
6864;SDS011;3471;49.678;8.388;2022-12-18T02:06:23;50.35;;;32.88;;
6864;SDS011;3471;49.678;8.388;2022-12-18T02:09:18;59.65;;;33.15;;
6864;SDS011;3471;49.678;8.388;2022-12-18T02:11:49;44.50;;;29.65;;
6864;SDS011;3471;49.678;8.388;2022-12-18T02:17:30;63.53;;;32.15;;
6864;SDS011;3471;49.678;8.388;2022-12-18T02:28:16;58.75;;;37.03;;
6864;SDS011;3471;49.678;8.388;2022-12-18T02:30:46;63.90;;;35.80;;
6864;SDS011;3471;49.678;8.388;2022-12-18T02:33:14;63.00;;;32.97;;
6864;SDS011;3471;49.678;8.388;2022-12-18T02:35:40;60.65;;;36.80;;
6864;SDS011;3471;49.678;8.388;2022-12-18T02:38:08;46.67;;;27.90;;
6864;SDS011;3471;49.678;8.388;2022-12-18T02:40:35;63.13;;;32.30;;
6864;SDS011;3471;49.678;8.388;2022-12-18T02:43:12;67.20;;;36.40;;
6864;SDS011;3471;49.678;8.388;2022-12-18T02:45:50;52.75;;;31.45;;
6864;SDS011;3471;49.678;8.388;2022-12-18T02:48:21;75.07;;;36.78;;
6864;SDS011;3471;49.678;8.388;2022-12-18T02:50:59;65.07;;;35.08;;
6864;SDS011;3471;49.678;8.388;2022-12-18T02:53:29;74.53;;;37.80;;
6864;SDS011;3471;49.678;8.388;2022-12-18T02:56:16;75.13;;;44.37;;
6864;SDS011;3471;49.678;8.388;2022-12-18T03:01:38;58.47;;;29.23;;
6864;SDS011;3471;49.678;8.388;2022-12-18T03:04:16;62.60;;;33.97;;
6864;SDS011;3471;49.678;8.388;2022-12-18T03:06:44;61.28;;;32.78;;
6864;SDS011;3471;49.678;8.388;2022-12-18T03:09:16;62.67;;;33.92;;
6864;SDS011;3471;49.678;8.388;2022-12-18T03:11:50;59.83;;;31.57;;
6864;SDS011;3471;49.678;8.388;2022-12-18T03:14:39;49.30;;;28.40;;
6864;SDS011;3471;49.678;8.388;2022-12-18T03:17:07;46.35;;;30.50;;
6864;SDS011;3471;49.678;8.388;2022-12-18T03:19:36;48.63;;;29.45;;
6864;SDS011;3471;49.678;8.388;2022-12-18T03:22:04;57.00;;;34.63;;
6864;SDS011;3471;49.678;8.388;2022-12-18T03:24:31;65.40;;;32.92;;
6864;SDS011;3471;49.678;8.388;2022-12-18T03:26:59;59.63;;;33.15;;
6864;SDS011;3471;49.678;8.388;2022-12-18T03:29:30;46.25;;;28.98;;
6864;SDS011;3471;49.678;8.388;2022-12-18T03:31:58;54.65;;;30.15;;
6864;SDS011;3471;49.678;8.388;2022-12-18T03:34:37;51.92;;;29.05;;
6864;SDS011;3471;49.678;8.388;2022-12-18T03:37:05;47.80;;;29.38;;
6864;SDS011;3471;49.678;8.388;2022-12-18T03:39:32;68.43;;;35.42;;
6864;SDS011;3471;49.678;8.388;2022-12-18T03:42:04;48.03;;;27.65;;
6864;SDS011;3471;49.678;8.388;2022-12-18T03:47:33;62.33;;;28.77;;
6864;SDS011;3471;49.678;8.388;2022-12-18T03:50:22;48.67;;;28.77;;
6864;SDS011;3471;49.678;8.388;2022-12-18T03:53:00;45.03;;;30.23;;
6864;SDS011;3471;49.678;8.388;2022-12-18T03:55:40;54.60;;;28.38;;
6864;SDS011;3471;49.678;8.388;2022-12-18T03:58:07;43.70;;;26.83;;
6864;SDS011;3471;49.678;8.388;2022-12-18T04:00:33;58.13;;;33.28;;
6864;SDS011;3471;49.678;8.388;2022-12-18T04:03:00;60.63;;;31.85;;
6864;SDS011;3471;49.678;8.388;2022-12-18T04:05:27;53.38;;;28.50;;
6864;SDS011;3471;49.678;8.388;2022-12-18T04:07:53;56.97;;;29.33;;
6864;SDS011;3471;49.678;8.388;2022-12-18T04:10:21;59.20;;;33.88;;
6864;SDS011;3471;49.678;8.388;2022-12-18T04:12:46;42.10;;;28.73;;
6864;SDS011;3471;49.678;8.388;2022-12-18T04:15:12;48.77;;;24.50;;
6864;SDS011;3471;49.678;8.388;2022-12-18T04:17:38;51.70;;;29.60;;
6864;SDS011;3471;49.678;8.388;2022-12-18T04:20:12;57.90;;;31.03;;
6864;SDS011;3471;49.678;8.388;2022-12-18T04:22:37;48.83;;;30.37;;
6864;SDS011;3471;49.678;8.388;2022-12-18T04:25:03;52.03;;;28.10;;
6864;SDS011;3471;49.678;8.388;2022-12-18T04:27:29;53.25;;;29.45;;
6864;SDS011;3471;49.678;8.388;2022-12-18T04:29:55;62.08;;;30.17;;
6864;SDS011;3471;49.678;8.388;2022-12-18T04:32:20;54.13;;;28.87;;
6864;SDS011;3471;49.678;8.388;2022-12-18T04:34:46;49.63;;;31.20;;
6864;SDS011;3471;49.678;8.388;2022-12-18T04:37:12;53.33;;;32.47;;
6864;SDS011;3471;49.678;8.388;2022-12-18T04:39:38;56.30;;;30.23;;
6864;SDS011;3471;49.678;8.388;2022-12-18T04:42:03;46.63;;;27.90;;
6864;SDS011;3471;49.678;8.388;2022-12-18T04:44:29;47.65;;;28.77;;
6864;SDS011;3471;49.678;8.388;2022-12-18T04:46:54;53.08;;;28.88;;
6864;SDS011;3471;49.678;8.388;2022-12-18T04:49:20;42.45;;;27.50;;
6864;SDS011;3471;49.678;8.388;2022-12-18T04:51:46;46.03;;;26.40;;
6864;SDS011;3471;49.678;8.388;2022-12-18T04:54:12;55.65;;;31.80;;
6864;SDS011;3471;49.678;8.388;2022-12-18T04:56:37;43.92;;;30.00;;
6864;SDS011;3471;49.678;8.388;2022-12-18T04:59:03;54.80;;;29.73;;
6864;SDS011;3471;49.678;8.388;2022-12-18T05:01:28;48.90;;;28.17;;
6864;SDS011;3471;49.678;8.388;2022-12-18T05:03:54;59.23;;;28.40;;
6864;SDS011;3471;49.678;8.388;2022-12-18T05:06:19;55.77;;;29.53;;
6864;SDS011;3471;49.678;8.388;2022-12-18T05:08:45;53.58;;;31.20;;
6864;SDS011;3471;49.678;8.388;2022-12-18T05:11:11;44.97;;;27.95;;
6864;SDS011;3471;49.678;8.388;2022-12-18T05:13:41;49.53;;;28.75;;
6864;SDS011;3471;49.678;8.388;2022-12-18T05:16:08;42.85;;;26.95;;
6864;SDS011;3471;49.678;8.388;2022-12-18T05:18:34;47.35;;;28.70;;
6864;SDS011;3471;49.678;8.388;2022-12-18T05:21:00;49.80;;;29.50;;
6864;SDS011;3471;49.678;8.388;2022-12-18T05:23:26;57.28;;;30.35;;
6864;SDS011;3471;49.678;8.388;2022-12-18T05:28:18;42.35;;;26.95;;
6864;SDS011;3471;49.678;8.388;2022-12-18T05:30:48;54.35;;;30.60;;
6864;SDS011;3471;49.678;8.388;2022-12-18T05:33:15;53.55;;;31.00;;
6864;SDS011;3471;49.678;8.388;2022-12-18T05:35:41;41.97;;;26.48;;
6864;SDS011;3471;49.678;8.388;2022-12-18T05:38:07;48.90;;;29.20;;
6864;SDS011;3471;49.678;8.388;2022-12-18T05:40:32;51.85;;;29.10;;
6864;SDS011;3471;49.678;8.388;2022-12-18T05:42:58;51.03;;;26.33;;
6864;SDS011;3471;49.678;8.388;2022-12-18T05:45:23;45.30;;;26.20;;
6864;SDS011;3471;49.678;8.388;2022-12-18T05:47:49;47.17;;;28.67;;
6864;SDS011;3471;49.678;8.388;2022-12-18T05:50:14;56.60;;;30.67;;
6864;SDS011;3471;49.678;8.388;2022-12-18T05:52:40;43.63;;;26.50;;
6864;SDS011;3471;49.678;8.388;2022-12-18T05:55:06;58.67;;;26.67;;
6864;SDS011;3471;49.678;8.388;2022-12-18T05:57:31;47.00;;;28.95;;
6864;SDS011;3471;49.678;8.388;2022-12-18T05:59:57;42.55;;;26.10;;
6864;SDS011;3471;49.678;8.388;2022-12-18T06:02:22;45.85;;;26.05;;
6864;SDS011;3471;49.678;8.388;2022-12-18T06:04:48;42.55;;;28.17;;
6864;SDS011;3471;49.678;8.388;2022-12-18T06:07:14;51.00;;;28.55;;
6864;SDS011;3471;49.678;8.388;2022-12-18T06:09:39;57.80;;;32.80;;
6864;SDS011;3471;49.678;8.388;2022-12-18T06:12:05;45.17;;;28.50;;
6864;SDS011;3471;49.678;8.388;2022-12-18T06:14:31;52.80;;;29.43;;
6864;SDS011;3471;49.678;8.388;2022-12-18T06:16:56;53.80;;;29.27;;
6864;SDS011;3471;49.678;8.388;2022-12-18T06:19:22;48.03;;;29.90;;
6864;SDS011;3471;49.678;8.388;2022-12-18T06:21:47;49.70;;;28.25;;
6864;SDS011;3471;49.678;8.388;2022-12-18T06:24:14;57.08;;;30.25;;
6864;SDS011;3471;49.678;8.388;2022-12-18T06:26:39;44.70;;;31.07;;
6864;SDS011;3471;49.678;8.388;2022-12-18T06:29:05;55.57;;;33.20;;
6864;SDS011;3471;49.678;8.388;2022-12-18T06:31:31;57.60;;;29.48;;
6864;SDS011;3471;49.678;8.388;2022-12-18T06:33:57;60.40;;;30.38;;
6864;SDS011;3471;49.678;8.388;2022-12-18T06:36:22;49.35;;;27.85;;
6864;SDS011;3471;49.678;8.388;2022-12-18T06:38:48;60.28;;;32.33;;
6864;SDS011;3471;49.678;8.388;2022-12-18T06:41:14;62.40;;;35.77;;
6864;SDS011;3471;49.678;8.388;2022-12-18T06:43:41;68.45;;;35.45;;
6864;SDS011;3471;49.678;8.388;2022-12-18T06:46:07;63.63;;;37.13;;
6864;SDS011;3471;49.678;8.388;2022-12-18T06:48:33;52.28;;;28.90;;
6864;SDS011;3471;49.678;8.388;2022-12-18T06:50:59;66.65;;;34.20;;
6864;SDS011;3471;49.678;8.388;2022-12-18T06:53:25;84.97;;;37.93;;
6864;SDS011;3471;49.678;8.388;2022-12-18T06:55:51;71.43;;;31.70;;
6864;SDS011;3471;49.678;8.388;2022-12-18T06:58:17;56.30;;;31.90;;
6864;SDS011;3471;49.678;8.388;2022-12-18T07:00:43;51.60;;;33.60;;
6864;SDS011;3471;49.678;8.388;2022-12-18T07:03:08;71.30;;;34.10;;
6864;SDS011;3471;49.678;8.388;2022-12-18T07:05:34;57.40;;;33.08;;
6864;SDS011;3471;49.678;8.388;2022-12-18T07:08:04;72.10;;;30.65;;
6864;SDS011;3471;49.678;8.388;2022-12-18T07:10:29;52.50;;;31.40;;
6864;SDS011;3471;49.678;8.388;2022-12-18T07:12:55;51.90;;;34.25;;
6864;SDS011;3471;49.678;8.388;2022-12-18T07:15:21;56.35;;;31.80;;
6864;SDS011;3471;49.678;8.388;2022-12-18T07:17:46;63.55;;;35.13;;
6864;SDS011;3471;49.678;8.388;2022-12-18T07:20:12;54.28;;;34.70;;
6864;SDS011;3471;49.678;8.388;2022-12-18T07:22:37;52.10;;;34.37;;
6864;SDS011;3471;49.678;8.388;2022-12-18T07:25:03;61.30;;;36.40;;
6864;SDS011;3471;49.678;8.388;2022-12-18T07:27:29;60.63;;;34.17;;
6864;SDS011;3471;49.678;8.388;2022-12-18T07:29:55;61.30;;;36.50;;
6864;SDS011;3471;49.678;8.388;2022-12-18T07:32:20;58.80;;;33.60;;
6864;SDS011;3471;49.678;8.388;2022-12-18T07:34:46;50.33;;;30.80;;
6864;SDS011;3471;49.678;8.388;2022-12-18T07:37:11;43.87;;;33.30;;
6864;SDS011;3471;49.678;8.388;2022-12-18T07:39:37;58.77;;;32.10;;
6864;SDS011;3471;49.678;8.388;2022-12-18T07:42:03;53.90;;;32.45;;
6864;SDS011;3471;49.678;8.388;2022-12-18T07:44:47;61.75;;;29.58;;
6864;SDS011;3471;49.678;8.388;2022-12-18T07:47:12;53.10;;;32.43;;
6864;SDS011;3471;49.678;8.388;2022-12-18T07:49:38;64.13;;;31.53;;
6864;SDS011;3471;49.678;8.388;2022-12-18T07:52:03;56.77;;;34.30;;
6864;SDS011;3471;49.678;8.388;2022-12-18T07:54:29;48.03;;;30.38;;
6864;SDS011;3471;49.678;8.388;2022-12-18T07:56:54;60.17;;;33.53;;
6864;SDS011;3471;49.678;8.388;2022-12-18T07:59:20;53.67;;;30.95;;
6864;SDS011;3471;49.678;8.388;2022-12-18T08:01:46;69.90;;;37.17;;
6864;SDS011;3471;49.678;8.388;2022-12-18T08:04:11;63.53;;;36.57;;
6864;SDS011;3471;49.678;8.388;2022-12-18T08:06:37;61.00;;;33.20;;
6864;SDS011;3471;49.678;8.388;2022-12-18T08:09:02;64.73;;;34.83;;
6864;SDS011;3471;49.678;8.388;2022-12-18T08:11:28;67.13;;;37.42;;
6864;SDS011;3471;49.678;8.388;2022-12-18T08:13:54;64.65;;;38.70;;
6864;SDS011;3471;49.678;8.388;2022-12-18T08:16:20;77.63;;;40.25;;
6864;SDS011;3471;49.678;8.388;2022-12-18T08:18:46;94.50;;;41.03;;
6864;SDS011;3471;49.678;8.388;2022-12-18T08:21:14;86.27;;;41.70;;
6864;SDS011;3471;49.678;8.388;2022-12-18T08:23:45;94.95;;;46.78;;
6864;SDS011;3471;49.678;8.388;2022-12-18T08:26:11;60.67;;;35.17;;
6864;SDS011;3471;49.678;8.388;2022-12-18T08:28:38;66.00;;;40.17;;
6864;SDS011;3471;49.678;8.388;2022-12-18T08:31:04;88.43;;;42.80;;
6864;SDS011;3471;49.678;8.388;2022-12-18T08:33:30;87.00;;;43.05;;
6864;SDS011;3471;49.678;8.388;2022-12-18T08:35:57;89.32;;;42.47;;
6864;SDS011;3471;49.678;8.388;2022-12-18T08:38:23;67.65;;;38.83;;
6864;SDS011;3471;49.678;8.388;2022-12-18T08:40:49;84.73;;;42.63;;
6864;SDS011;3471;49.678;8.388;2022-12-18T08:43:15;99.73;;;46.93;;
6864;SDS011;3471;49.678;8.388;2022-12-18T08:45:59;114.15;;;53.90;;
6864;SDS011;3471;49.678;8.388;2022-12-18T08:48:24;106.05;;;50.15;;
6864;SDS011;3471;49.678;8.388;2022-12-18T08:50:54;141.87;;;56.40;;
6864;SDS011;3471;49.678;8.388;2022-12-18T08:53:20;92.53;;;48.63;;
6864;SDS011;3471;49.678;8.388;2022-12-18T08:55:46;114.23;;;52.27;;
6864;SDS011;3471;49.678;8.388;2022-12-18T08:58:11;103.55;;;50.60;;
6864;SDS011;3471;49.678;8.388;2022-12-18T09:00:37;102.90;;;49.00;;
6864;SDS011;3471;49.678;8.388;2022-12-18T09:03:02;84.70;;;43.67;;
6864;SDS011;3471;49.678;8.388;2022-12-18T09:05:28;79.77;;;35.57;;
6864;SDS011;3471;49.678;8.388;2022-12-18T09:07:55;59.80;;;33.15;;
6864;SDS011;3471;49.678;8.388;2022-12-18T09:10:21;82.70;;;37.88;;
6864;SDS011;3471;49.678;8.388;2022-12-18T09:12:47;85.70;;;36.85;;
6864;SDS011;3471;49.678;8.388;2022-12-18T09:15:12;71.23;;;37.83;;
6864;SDS011;3471;49.678;8.388;2022-12-18T09:17:38;75.63;;;36.07;;
6864;SDS011;3471;49.678;8.388;2022-12-18T09:20:03;51.22;;;33.05;;
6864;SDS011;3471;49.678;8.388;2022-12-18T09:22:30;67.32;;;37.92;;
6864;SDS011;3471;49.678;8.388;2022-12-18T09:24:55;61.35;;;36.85;;
6864;SDS011;3471;49.678;8.388;2022-12-18T09:27:21;65.10;;;38.93;;
6864;SDS011;3471;49.678;8.388;2022-12-18T09:29:47;49.83;;;34.13;;
6864;SDS011;3471;49.678;8.388;2022-12-18T09:32:12;68.67;;;37.67;;
6864;SDS011;3471;49.678;8.388;2022-12-18T09:34:38;62.20;;;35.60;;
6864;SDS011;3471;49.678;8.388;2022-12-18T09:37:03;64.70;;;35.30;;
6864;SDS011;3471;49.678;8.388;2022-12-18T09:39:29;58.80;;;34.50;;
6864;SDS011;3471;49.678;8.388;2022-12-18T09:41:55;66.20;;;34.25;;
6864;SDS011;3471;49.678;8.388;2022-12-18T09:44:56;64.47;;;34.15;;
6864;SDS011;3471;49.678;8.388;2022-12-18T09:47:22;48.08;;;29.48;;
6864;SDS011;3471;49.678;8.388;2022-12-18T09:49:52;44.25;;;28.20;;
6864;SDS011;3471;49.678;8.388;2022-12-18T09:55:09;39.63;;;25.23;;
6864;SDS011;3471;49.678;8.388;2022-12-18T09:57:49;45.53;;;26.50;;
6864;SDS011;3471;49.678;8.388;2022-12-18T10:00:19;40.95;;;23.30;;
6864;SDS011;3471;49.678;8.388;2022-12-18T10:02:51;51.70;;;27.42;;
6864;SDS011;3471;49.678;8.388;2022-12-18T10:05:24;47.78;;;29.85;;
6864;SDS011;3471;49.678;8.388;2022-12-18T10:08:04;53.45;;;30.25;;
6864;SDS011;3471;49.678;8.388;2022-12-18T10:13:10;33.67;;;26.15;;
6864;SDS011;3471;49.678;8.388;2022-12-18T10:16:19;45.33;;;25.10;;
6864;SDS011;3471;49.678;8.388;2022-12-18T10:21:58;39.47;;;25.67;;
6864;SDS011;3471;49.678;8.388;2022-12-18T10:27:09;39.03;;;26.35;;
6864;SDS011;3471;49.678;8.388;2022-12-18T10:29:41;30.73;;;19.73;;
6864;SDS011;3471;49.678;8.388;2022-12-18T10:32:18;38.83;;;26.23;;
6864;SDS011;3471;49.678;8.388;2022-12-18T10:34:46;44.38;;;26.02;;
6864;SDS011;3471;49.678;8.388;2022-12-18T10:37:16;40.42;;;22.50;;
6864;SDS011;3471;49.678;8.388;2022-12-18T10:39:44;42.03;;;24.70;;
6864;SDS011;3471;49.678;8.388;2022-12-18T10:42:16;38.70;;;27.90;;
6864;SDS011;3471;49.678;8.388;2022-12-18T10:44:43;46.92;;;30.05;;
6864;SDS011;3471;49.678;8.388;2022-12-18T10:47:11;42.33;;;30.05;;
6864;SDS011;3471;49.678;8.388;2022-12-18T10:49:50;43.25;;;27.20;;
6864;SDS011;3471;49.678;8.388;2022-12-18T10:52:23;44.80;;;26.13;;
6864;SDS011;3471;49.678;8.388;2022-12-18T10:54:51;42.33;;;26.00;;
6864;SDS011;3471;49.678;8.388;2022-12-18T10:59:54;30.98;;;22.65;;
6864;SDS011;3471;49.678;8.388;2022-12-18T11:02:35;44.08;;;25.35;;
6864;SDS011;3471;49.678;8.388;2022-12-18T11:05:03;44.75;;;26.00;;
6864;SDS011;3471;49.678;8.388;2022-12-18T11:07:49;46.80;;;21.73;;
6864;SDS011;3471;49.678;8.388;2022-12-18T11:10:18;34.20;;;22.40;;
6864;SDS011;3471;49.678;8.388;2022-12-18T11:12:45;32.58;;;19.48;;
6864;SDS011;3471;49.678;8.388;2022-12-18T11:15:16;37.00;;;22.35;;
6864;SDS011;3471;49.678;8.388;2022-12-18T11:17:47;46.67;;;25.55;;
6864;SDS011;3471;49.678;8.388;2022-12-18T11:33:11;32.17;;;24.60;;
6864;SDS011;3471;49.678;8.388;2022-12-18T11:35:48;40.00;;;25.13;;
6864;SDS011;3471;49.678;8.388;2022-12-18T11:43:53;43.53;;;22.17;;
6864;SDS011;3471;49.678;8.388;2022-12-18T11:46:27;31.00;;;21.25;;
6864;SDS011;3471;49.678;8.388;2022-12-18T11:49:01;43.97;;;20.70;;
6864;SDS011;3471;49.678;8.388;2022-12-18T11:51:37;44.00;;;24.65;;
6864;SDS011;3471;49.678;8.388;2022-12-18T11:54:12;29.77;;;20.30;;
6864;SDS011;3471;49.678;8.388;2022-12-18T11:56:42;38.37;;;20.60;;
6864;SDS011;3471;49.678;8.388;2022-12-18T12:02:25;36.05;;;21.48;;
6864;SDS011;3471;49.678;8.388;2022-12-18T12:05:21;45.75;;;24.40;;
6864;SDS011;3471;49.678;8.388;2022-12-18T12:10:56;35.30;;;23.02;;
6864;SDS011;3471;49.678;8.388;2022-12-18T12:22:03;32.08;;;23.58;;
6864;SDS011;3471;49.678;8.388;2022-12-18T12:24:37;35.90;;;23.63;;
6864;SDS011;3471;49.678;8.388;2022-12-18T12:27:25;49.90;;;26.93;;
6864;SDS011;3471;49.678;8.388;2022-12-18T12:30:00;43.42;;;29.52;;
6864;SDS011;3471;49.678;8.388;2022-12-18T12:32:49;37.22;;;26.00;;
6864;SDS011;3471;49.678;8.388;2022-12-18T12:43:29;30.27;;;24.42;;
6864;SDS011;3471;49.678;8.388;2022-12-18T12:46:10;46.13;;;27.10;;
6864;SDS011;3471;49.678;8.388;2022-12-18T12:48:52;41.88;;;28.15;;
6864;SDS011;3471;49.678;8.388;2022-12-18T12:53:59;47.37;;;30.47;;
6864;SDS011;3471;49.678;8.388;2022-12-18T12:56:50;47.75;;;29.73;;
6864;SDS011;3471;49.678;8.388;2022-12-18T12:59:31;50.75;;;28.10;;
6864;SDS011;3471;49.678;8.388;2022-12-18T13:02:20;48.08;;;27.50;;
6864;SDS011;3471;49.678;8.388;2022-12-18T13:07:27;50.28;;;32.45;;
6864;SDS011;3471;49.678;8.388;2022-12-18T13:10:13;68.38;;;31.60;;
6864;SDS011;3471;49.678;8.388;2022-12-18T13:13:17;57.58;;;35.60;;
6864;SDS011;3471;49.678;8.388;2022-12-18T13:15:47;60.15;;;34.70;;
6864;SDS011;3471;49.678;8.388;2022-12-18T13:18:27;53.70;;;34.00;;
6864;SDS011;3471;49.678;8.388;2022-12-18T13:25:54;59.13;;;35.50;;
6864;SDS011;3471;49.678;8.388;2022-12-18T13:30:58;57.97;;;32.90;;
6864;SDS011;3471;49.678;8.388;2022-12-18T13:38:22;70.00;;;32.80;;
6864;SDS011;3471;49.678;8.388;2022-12-18T13:41:00;63.15;;;35.55;;
6864;SDS011;3471;49.678;8.388;2022-12-18T13:43:39;52.40;;;35.67;;
6864;SDS011;3471;49.678;8.388;2022-12-18T13:46:19;66.28;;;37.25;;
6864;SDS011;3471;49.678;8.388;2022-12-18T13:48:51;65.83;;;34.63;;
6864;SDS011;3471;49.678;8.388;2022-12-18T13:51:23;61.75;;;38.17;;
6864;SDS011;3471;49.678;8.388;2022-12-18T13:56:21;60.10;;;35.33;;
6864;SDS011;3471;49.678;8.388;2022-12-18T14:01:41;56.60;;;34.80;;
6864;SDS011;3471;49.678;8.388;2022-12-18T14:04:08;66.10;;;36.90;;
6864;SDS011;3471;49.678;8.388;2022-12-18T14:06:43;58.47;;;37.22;;
6864;SDS011;3471;49.678;8.388;2022-12-18T14:09:11;69.72;;;33.80;;
6864;SDS011;3471;49.678;8.388;2022-12-18T14:11:40;66.78;;;36.33;;
6864;SDS011;3471;49.678;8.388;2022-12-18T14:14:13;59.10;;;37.85;;
6864;SDS011;3471;49.678;8.388;2022-12-18T14:16:40;79.72;;;38.03;;
6864;SDS011;3471;49.678;8.388;2022-12-18T14:19:08;66.00;;;37.60;;
6864;SDS011;3471;49.678;8.388;2022-12-18T14:21:39;62.78;;;35.30;;
6864;SDS011;3471;49.678;8.388;2022-12-18T14:26:34;72.75;;;40.78;;
6864;SDS011;3471;49.678;8.388;2022-12-18T14:29:44;76.88;;;41.05;;
6864;SDS011;3471;49.678;8.388;2022-12-18T14:31:45;87.88;;;41.70;;
6864;SDS011;3471;49.678;8.388;2022-12-18T14:34:15;74.43;;;43.35;;
6864;SDS011;3471;49.678;8.388;2022-12-18T14:36:41;66.60;;;34.25;;
6864;SDS011;3471;49.678;8.388;2022-12-18T14:39:17;85.47;;;38.25;;
6864;SDS011;3471;49.678;8.388;2022-12-18T14:41:43;64.97;;;41.67;;
6864;SDS011;3471;49.678;8.388;2022-12-18T14:44:11;57.17;;;37.35;;
6864;SDS011;3471;49.678;8.388;2022-12-18T14:46:38;80.10;;;43.00;;
6864;SDS011;3471;49.678;8.388;2022-12-18T14:51:52;55.38;;;38.65;;
6864;SDS011;3471;49.678;8.388;2022-12-18T14:54:20;73.45;;;39.85;;
6864;SDS011;3471;49.678;8.388;2022-12-18T14:56:48;65.75;;;39.25;;
6864;SDS011;3471;49.678;8.388;2022-12-18T14:59:35;75.65;;;37.60;;
6864;SDS011;3471;49.678;8.388;2022-12-18T15:02:07;69.07;;;40.00;;
6864;SDS011;3471;49.678;8.388;2022-12-18T15:04:44;64.13;;;38.78;;
6864;SDS011;3471;49.678;8.388;2022-12-18T15:09:36;70.87;;;41.17;;
6864;SDS011;3471;49.678;8.388;2022-12-18T15:12:03;60.88;;;36.67;;
6864;SDS011;3471;49.678;8.388;2022-12-18T15:14:31;64.38;;;38.28;;
6864;SDS011;3471;49.678;8.388;2022-12-18T15:17:14;60.08;;;39.15;;
6864;SDS011;3471;49.678;8.388;2022-12-18T15:19:46;61.60;;;37.30;;
6864;SDS011;3471;49.678;8.388;2022-12-18T15:24:48;70.97;;;37.72;;
6864;SDS011;3471;49.678;8.388;2022-12-18T15:27:22;58.57;;;37.93;;
6864;SDS011;3471;49.678;8.388;2022-12-18T15:30:00;55.80;;;35.63;;
6864;SDS011;3471;49.678;8.388;2022-12-18T15:32:27;57.03;;;37.25;;
6864;SDS011;3471;49.678;8.388;2022-12-18T15:37:47;79.85;;;38.25;;
6864;SDS011;3471;49.678;8.388;2022-12-18T15:40:18;72.72;;;48.17;;
6864;SDS011;3471;49.678;8.388;2022-12-18T15:42:45;63.50;;;37.25;;
6864;SDS011;3471;49.678;8.388;2022-12-18T15:45:31;73.22;;;41.17;;
6864;SDS011;3471;49.678;8.388;2022-12-18T15:47:57;64.00;;;38.78;;
6864;SDS011;3471;49.678;8.388;2022-12-18T15:50:23;69.82;;;37.92;;
6864;SDS011;3471;49.678;8.388;2022-12-18T15:52:49;52.67;;;37.35;;
6864;SDS011;3471;49.678;8.388;2022-12-18T15:55:22;55.28;;;34.38;;
6864;SDS011;3471;49.678;8.388;2022-12-18T15:58:08;59.08;;;34.60;;
6864;SDS011;3471;49.678;8.388;2022-12-18T16:00:35;53.70;;;35.08;;
6864;SDS011;3471;49.678;8.388;2022-12-18T16:03:03;45.30;;;32.95;;
6864;SDS011;3471;49.678;8.388;2022-12-18T16:05:29;69.45;;;40.13;;
6864;SDS011;3471;49.678;8.388;2022-12-18T16:07:56;63.92;;;38.95;;
6864;SDS011;3471;49.678;8.388;2022-12-18T16:10:22;64.30;;;36.70;;
6864;SDS011;3471;49.678;8.388;2022-12-18T16:12:49;72.10;;;36.63;;
6864;SDS011;3471;49.678;8.388;2022-12-18T16:15:14;60.17;;;36.17;;
6864;SDS011;3471;49.678;8.388;2022-12-18T16:17:41;61.80;;;38.45;;
6864;SDS011;3471;49.678;8.388;2022-12-18T16:20:18;69.93;;;40.65;;
6864;SDS011;3471;49.678;8.388;2022-12-18T16:22:46;74.00;;;38.15;;
6864;SDS011;3471;49.678;8.388;2022-12-18T16:27:49;54.40;;;34.97;;
6864;SDS011;3471;49.678;8.388;2022-12-18T16:30:16;58.35;;;35.42;;
6864;SDS011;3471;49.678;8.388;2022-12-18T16:32:47;52.33;;;34.08;;
6864;SDS011;3471;49.678;8.388;2022-12-18T16:35:13;61.72;;;35.42;;
6864;SDS011;3471;49.678;8.388;2022-12-18T16:37:40;61.17;;;35.65;;
6864;SDS011;3471;49.678;8.388;2022-12-18T16:40:07;82.73;;;40.10;;
6864;SDS011;3471;49.678;8.388;2022-12-18T16:42:35;58.25;;;37.35;;
6864;SDS011;3471;49.678;8.388;2022-12-18T16:45:01;61.33;;;32.67;;
6864;SDS011;3471;49.678;8.388;2022-12-18T16:47:27;61.47;;;38.58;;
6864;SDS011;3471;49.678;8.388;2022-12-18T16:49:53;59.80;;;36.60;;
6864;SDS011;3471;49.678;8.388;2022-12-18T16:52:18;60.95;;;39.72;;
6864;SDS011;3471;49.678;8.388;2022-12-18T16:54:44;65.05;;;36.00;;